Time;durP1;ratioP1;P1;durP2;ratioP2;P2;SDS_P1;SDS_P2;PMS_P1;PMS_P2;Temp;Humidity;BMP_temperature;BMP_pressure;BME280_temperature;BME280_humidity;BME280_pressure;Samples;Min_cycle;Max_cycle;Signal;HPM_P1;HPM_P2
2022/06/07 00:00:13;;;;;;;5.72;2.05;;;18.40;99.70;;;18.46;100.00;100464.09;5028065;28;20461;-78
2022/06/07 00:02:40;;;;;;;2.67;2.10;;;18.30;99.60;;;18.42;100.00;100462.56;5044846;28;20045;-78
2022/06/07 00:05:08;;;;;;;1.98;1.77;;;18.40;99.60;;;18.46;100.00;100463.22;5029787;28;20038;-78
2022/06/07 00:07:35;;;;;;;4.53;1.88;;;18.30;99.70;;;18.34;100.00;100460.31;5028914;28;20061;-77
2022/06/07 00:10:02;;;;;;;1.77;1.50;;;18.30;99.60;;;18.29;100.00;100467.69;5011817;28;20053;-78
2022/06/07 00:12:29;;;;;;;2.60;1.88;;;18.30;99.60;;;18.30;100.00;100472.06;5028663;28;20092;-78
2022/06/07 00:14:57;;;;;;;2.03;1.83;;;18.20;99.80;;;18.29;100.00;100470.34;5012281;28;20047;-78
2022/06/07 00:17:24;;;;;;;2.13;1.92;;;18.20;99.80;;;18.35;100.00;100471.81;5012121;28;20132;-78
2022/06/07 00:19:51;;;;;;;2.58;1.52;;;18.20;99.80;;;18.29;100.00;100470.34;5044469;28;20053;-77
2022/06/07 00:22:18;;;;;;;2.30;1.60;;;18.20;99.90;;;18.30;100.00;100469.41;5028699;28;20056;-78
2022/06/07 00:24:45;;;;;;;3.00;1.80;;;18.20;99.90;;;18.22;100.00;100467.16;5045023;28;20049;-77
2022/06/07 00:27:13;;;;;;;2.28;1.55;;;18.20;99.90;;;18.22;100.00;100467.16;5043826;28;20045;-78
2022/06/07 00:29:43;;;;;;;2.70;2.00;;;18.10;99.90;;;18.16;100.00;100475.50;5027621;28;20075;-78
2022/06/07 00:32:10;;;;;;;3.35;1.88;;;18.20;99.90;;;18.14;100.00;100474.72;5028128;28;20107;-78
2022/06/07 00:34:37;;;;;;;4.30;1.90;;;19.30;99.90;;;18.11;100.00;100478.41;5044743;28;20748;-78
2022/06/07 00:37:05;;;;;;;3.60;1.90;;;18.10;99.90;;;18.08;100.00;100475.91;5045001;28;20046;-78
2022/06/07 00:39:32;;;;;;;3.45;2.28;;;18.00;99.90;;;18.04;100.00;100477.03;5027263;28;20053;-77
2022/06/07 00:41:59;;;;;;;2.80;2.13;;;18.00;99.90;;;18.02;100.00;100480.66;5028444;28;20514;-77
2022/06/07 00:44:42;;;;;;;2.70;2.13;;;18.00;99.90;;;17.98;100.00;100469.31;5027870;28;20064;-77
2022/06/07 00:47:20;;;;;;;2.75;2.30;;;18.00;99.90;;;18.00;100.00;100465.66;5031322;28;20089;-78
2022/06/07 00:50:16;;;;;;;3.78;2.30;;;17.90;99.90;;;17.97;100.00;100471.13;4991335;28;20053;-77
2022/06/07 00:52:43;;;;;;;3.47;2.05;;;17.90;99.90;;;17.88;100.00;100463.63;5008481;28;20379;-77
2022/06/07 00:55:10;;;;;;;3.13;1.88;;;17.90;99.90;;;17.87;100.00;100459.25;5007700;28;20050;-78
2022/06/07 00:57:47;;;;;;;2.63;1.83;;;17.80;99.90;;;17.80;100.00;100465.84;5009755;28;20054;-77
2022/06/07 01:00:23;;;;;;;2.30;1.75;;;17.80;99.90;;;17.82;100.00;100467.47;4991799;28;20050;-77
2022/06/07 01:02:55;;;;;;;6.95;2.42;;;17.70;99.90;;;17.76;100.00;100465.16;5008073;28;20094;-78
2022/06/07 01:05:22;;;;;;;4.05;2.08;;;17.70;99.90;;;17.71;100.00;100462.72;5008142;28;20128;-77
2022/06/07 01:10:47;;;;;;;4.15;1.80;;;18.60;99.90;;;17.67;100.00;100463.84;4993941;28;20046;-77
2022/06/07 01:13:32;;;;;;;2.22;2.00;;;17.60;99.90;;;17.59;100.00;100466.03;5008506;28;20050;-77
2022/06/07 01:16:10;;;;;;;3.55;1.77;;;17.60;99.90;;;17.48;100.00;100457.72;5024406;28;20123;-78
2022/06/07 01:18:42;;;;;;;3.00;2.20;;;17.50;99.90;;;17.36;100.00;100462.75;4993224;28;20054;-79
2022/06/07 01:21:21;;;;;;;4.18;2.47;;;17.50;99.90;;;17.38;100.00;100460.00;5015399;28;20053;-78
2022/06/07 01:23:49;;;;;;;2.20;1.90;;;17.40;99.90;;;17.37;100.00;100461.81;5027087;28;20078;-78
2022/06/07 01:26:22;;;;;;;2.97;2.20;;;18.50;99.90;;;17.29;100.00;100459.53;5012085;28;20045;-77
2022/06/07 01:28:49;;;;;;;3.00;2.13;;;17.30;99.90;;;17.29;100.00;100459.53;5027160;28;20037;-78
2022/06/07 01:31:16;;;;;;;3.65;2.40;;;17.30;99.90;;;17.29;100.00;100464.00;5026611;28;20117;-78
2022/06/07 01:33:44;;;;;;;3.42;2.05;;;17.30;99.90;;;17.26;100.00;100467.69;5010741;28;20050;-78
2022/06/07 01:36:15;;;;;;;2.40;2.20;;;17.30;99.90;;;17.26;100.00;100467.69;5027118;28;20050;-78
2022/06/07 01:41:53;;;;;;;3.85;2.50;;;17.60;99.90;;;17.17;100.00;100473.47;5026853;28;20138;-78
2022/06/07 01:44:36;;;;;;;2.67;2.15;;;17.20;99.90;;;17.18;100.00;100466.34;5026941;28;20132;-78
2022/06/07 01:47:04;;;;;;;2.50;2.13;;;17.20;99.90;;;17.09;100.00;100462.31;5010839;28;20537;-78
2022/06/07 01:49:35;;;;;;;2.95;1.90;;;17.10;99.90;;;17.11;100.00;100469.31;5026202;28;20052;-78
2022/06/07 01:52:04;;;;;;;3.60;2.20;;;17.10;99.90;;;17.09;100.00;100462.31;5042914;28;20053;-77
2022/06/07 01:54:35;;;;;;;2.65;2.00;;;17.00;99.90;;;17.04;100.00;100465.25;5026919;28;20111;-77
2022/06/07 01:57:04;;;;;;;2.20;2.00;;;17.10;99.90;;;17.09;100.00;100468.53;5043135;28;20048;-77
2022/06/07 01:59:33;;;;;;;3.80;2.10;;;17.10;99.90;;;17.04;100.00;100457.25;5019101;28;20053;-78
2022/06/07 02:02:01;;;;;;;2.60;1.95;;;17.00;99.90;;;17.03;100.00;100454.66;5006697;28;20586;-77
2022/06/07 02:04:28;;;;;;;3.33;2.10;;;17.00;99.90;;;16.99;100.00;100457.50;5007449;28;20593;-77
2022/06/07 02:06:55;;;;;;;2.95;1.88;;;17.00;99.90;;;16.97;100.00;100453.13;5009869;28;20133;-77
2022/06/07 02:09:30;;;;;;;2.38;1.95;;;17.00;99.90;;;16.93;100.00;100454.25;5007219;28;20038;-78
2022/06/07 02:11:58;;;;;;;2.92;2.25;;;17.00;99.90;;;16.85;100.00;100452.81;5006768;28;20053;-78
2022/06/07 02:14:25;;;;;;;2.55;1.90;;;16.90;99.90;;;16.86;100.00;100457.22;5006131;28;20073;-77
2022/06/07 02:16:53;;;;;;;2.85;2.17;;;17.20;99.90;;;16.76;100.00;100441.78;5016642;28;20411;-77
2022/06/07 02:19:24;;;;;;;2.35;2.10;;;16.90;99.90;;;16.73;100.00;100451.63;5025184;28;20136;-78
2022/06/07 02:21:51;;;;;;;2.75;2.38;;;16.80;99.90;;;16.69;100.00;100450.06;5026413;28;20143;-77
2022/06/07 02:24:18;;;;;;;3.60;2.28;;;16.80;99.90;;;16.72;100.00;100446.41;5009404;28;20057;-78
2022/06/07 02:26:59;;;;;;;2.78;2.35;;;16.80;99.90;;;16.73;100.00;100435.66;5030173;28;20048;-77
2022/06/07 02:29:42;;;;;;;4.72;2.50;;;16.80;99.90;;;16.79;100.00;100425.69;5043782;28;20049;-77
2022/06/07 02:32:25;;;;;;;2.90;2.33;;;16.70;99.90;;;16.78;100.00;100423.94;5027936;28;20128;-77
2022/06/07 02:34:57;;;;;;;2.53;2.08;;;16.70;99.90;;;16.76;100.00;100425.81;5025804;28;20932;-78
2022/06/07 02:37:27;;;;;;;3.08;2.05;;;16.70;99.90;;;16.70;100.00;100416.34;5026367;28;20049;-78
2022/06/07 02:39:56;;;;;;;2.70;2.47;;;16.70;99.90;;;16.76;100.00;100417.84;5025167;28;20049;-78
2022/06/07 02:42:27;;;;;;;4.78;1.90;;;16.70;99.90;;;16.79;100.00;100421.22;5026209;28;20433;-78
2022/06/07 02:44:55;;;;;;;2.72;2.15;;;17.10;99.90;;;16.71;100.00;100407.47;5025597;28;20053;-77
2022/06/07 02:47:22;;;;;;;2.33;2.00;;;16.70;99.90;;;16.66;100.00;100405.03;5028655;28;20045;-77
2022/06/07 02:49:55;;;;;;;2.80;2.40;;;16.90;99.90;;;16.68;100.00;100408.47;5004634;28;20487;-78
2022/06/07 02:52:23;;;;;;;4.53;2.38;;;16.70;99.90;;;16.70;100.00;100416.34;4990068;28;20046;-78
2022/06/07 02:55:09;;;;;;;3.78;2.45;;;16.70;99.90;;;16.70;100.00;100424.31;5008257;28;20053;-79
2022/06/07 02:57:38;;;;;;;2.80;2.20;;;16.90;99.90;;;16.70;100.00;100419.00;4989306;28;20439;-78
2022/06/07 03:00:12;;;;;;;4.55;2.10;;;16.70;99.90;;;16.68;100.00;100416.44;4995028;28;20060;-78
2022/06/07 03:02:40;;;;;;;4.00;2.35;;;16.70;99.90;;;16.68;100.00;100419.09;4996498;28;20617;-75
2022/06/07 03:05:10;;;;;;;3.40;2.25;;;16.70;99.90;;;16.68;100.00;100411.13;4994286;28;20065;-75
2022/06/07 03:07:39;;;;;;;4.03;2.30;;;16.70;99.90;;;16.63;100.00;100412.28;4995164;28;20057;-76
2022/06/07 03:10:10;;;;;;;2.30;1.95;;;16.70;99.90;;;16.66;100.00;100415.66;5009715;28;20077;-76
2022/06/07 03:12:38;;;;;;;3.15;1.98;;;16.70;99.90;;;16.55;100.00;100407.34;5027199;28;20570;-77
2022/06/07 03:15:08;;;;;;;5.22;2.17;;;16.70;99.90;;;16.57;100.00;100411.66;5001078;28;20511;-77
2022/06/07 03:17:37;;;;;;;3.55;2.58;;;16.60;99.90;;;16.55;100.00;100408.22;5015960;28;20129;-76
2022/06/07 03:20:07;;;;;;;2.72;2.35;;;16.60;99.90;;;16.61;100.00;100412.34;5012547;28;20561;-77
2022/06/07 03:22:36;;;;;;;4.95;2.25;;;16.60;99.90;;;16.60;100.00;100415.94;5014463;28;20246;-75
2022/06/07 03:25:08;;;;;;;3.10;1.98;;;16.60;99.90;;;16.65;100.00;100423.69;5029451;28;20067;-76
2022/06/07 03:27:39;;;;;;;4.25;2.28;;;16.60;99.90;;;16.58;100.00;100428.44;4983628;28;20053;-77
2022/06/07 03:30:11;;;;;;;9.13;2.10;;;17.80;99.90;;;16.62;100.00;100426.50;4993851;28;20053;-77
2022/06/07 03:32:40;;;;;;;3.95;2.00;;;16.60;99.90;;;16.63;100.00;100415.81;5011033;28;20103;-77
2022/06/07 03:35:08;;;;;;;6.07;2.40;;;16.60;99.90;;;16.58;100.00;100404.53;5010356;28;20431;-78
2022/06/07 03:37:38;;;;;;;3.05;2.17;;;16.60;99.90;;;16.65;100.00;100419.25;5025909;28;20072;-77
2022/06/07 03:40:09;;;;;;;2.88;2.10;;;16.60;99.90;;;16.61;100.00;100422.13;5009559;28;20164;-77
2022/06/07 03:42:38;;;;;;;3.10;2.03;;;16.60;99.90;;;16.65;100.00;100424.56;5009260;28;20085;-76
2022/06/07 03:45:06;;;;;;;3.55;2.10;;;16.60;99.90;;;16.61;100.00;100427.44;5010165;28;20622;-76
2022/06/07 03:47:37;;;;;;;5.15;2.05;;;16.60;99.90;;;16.65;100.00;100424.56;5025606;28;20466;-77
2022/06/07 03:50:05;;;;;;;3.53;2.22;;;16.60;99.90;;;16.63;100.00;100420.25;5029085;28;20046;-76
2022/06/07 03:52:32;;;;;;;2.17;1.98;;;16.60;99.90;;;16.57;100.00;100426.72;5030002;28;20510;-76
2022/06/07 03:55:02;;;;;;;10.38;2.60;;;16.60;99.90;;;16.61;100.00;100424.78;5025807;28;20503;-77
2022/06/07 03:57:32;;;;;;;2.38;1.88;;;16.60;99.90;;;16.56;100.00;100422.34;5030431;28;20667;-77
2022/06/07 04:00:01;;;;;;;2.20;2.00;;;16.60;99.90;;;16.56;100.00;100422.34;5029871;28;20103;-77
2022/06/07 04:02:41;;;;;;;4.15;2.10;;;16.50;99.90;;;16.54;100.00;100426.88;5031911;28;20115;-78
2022/06/07 04:05:09;;;;;;;2.95;1.88;;;16.50;99.90;;;16.56;100.00;100419.69;5034068;28;20103;-77
2022/06/07 04:10:23;;;;;;;2.70;1.90;;;16.50;99.90;;;16.50;100.00;100414.69;5039572;28;20053;-78
2022/06/07 04:12:51;;;;;;;2.58;2.10;;;16.50;99.90;;;16.47;100.00;100430.75;5035237;28;20095;-77
2022/06/07 04:15:23;;;;;;;2.40;2.20;;;16.50;99.90;;;16.49;100.00;100429.75;5034886;28;20057;-77
2022/06/07 04:17:53;;;;;;;2.88;2.30;;;16.40;99.90;;;16.45;100.00;100429.03;5031810;28;20378;-76
2022/06/07 04:20:25;;;;;;;2.90;2.15;;;16.40;99.90;;;16.44;100.00;100431.78;5028225;28;20084;-78
2022/06/07 04:22:58;;;;;;;3.05;2.17;;;16.50;99.90;;;16.39;100.00;100445.28;5029774;28;20061;-77
2022/06/07 04:25:35;;;;;;;4.85;2.70;;;16.40;99.90;;;16.37;100.00;100457.75;5028487;28;20056;-78
2022/06/07 04:28:04;;;;;;;3.72;2.42;;;16.40;99.90;;;16.39;100.00;100450.56;5030137;28;20407;-78
2022/06/07 04:30:32;;;;;;;3.17;2.30;;;16.40;99.90;;;16.39;100.00;100449.69;5044970;28;20132;-76
2022/06/07 04:33:03;;;;;;;5.30;2.92;;;16.40;99.90;;;16.38;100.00;100447.97;5046296;28;20234;-77
2022/06/07 04:35:31;;;;;;;3.97;2.80;;;16.40;99.90;;;16.40;100.00;100464.72;5012864;28;20061;-75
2022/06/07 04:38:02;;;;;;;4.53;3.13;;;16.40;99.90;;;16.44;100.00;100453.03;5030322;28;20057;-77
2022/06/07 04:40:37;;;;;;;4.18;2.65;;;16.40;99.90;;;16.50;100.00;100459.84;5027404;28;20158;-75
2022/06/07 04:43:05;;;;;;;3.55;3.25;;;16.50;99.90;;;16.49;100.00;100460.78;5029395;28;20507;-76
2022/06/07 04:45:37;;;;;;;5.25;2.97;;;16.50;99.90;;;16.59;100.00;100462.03;5028173;28;20045;-76
2022/06/07 04:48:10;;;;;;;3.30;3.00;;;16.60;99.90;;;16.64;100.00;100454.72;5045428;28;20517;-77
2022/06/07 04:50:45;;;;;;;4.00;3.28;;;16.60;99.90;;;16.62;100.00;100459.22;5026421;28;20484;-75
2022/06/07 04:53:16;;;;;;;4.47;3.13;;;16.60;99.90;;;16.70;100.00;100451.78;5028131;28;20046;-76
2022/06/07 04:55:46;;;;;;;3.03;2.70;;;17.80;99.90;;;16.73;100.00;100464.06;5028842;28;20056;-76
2022/06/07 04:58:14;;;;;;;4.38;3.20;;;16.70;99.90;;;16.78;100.00;100462.03;5028554;28;20499;-78
2022/06/07 05:00:44;;;;;;;3.05;2.75;;;18.70;99.90;;;16.84;100.00;100456.41;5027774;28;20117;-76
2022/06/07 05:03:12;;;;;;;4.68;3.40;;;16.70;99.90;;;16.83;100.00;100467.13;5028154;28;20169;-80
2022/06/07 05:05:43;;;;;;;4.30;3.08;;;16.80;99.90;;;16.87;100.00;100461.59;5035443;28;20037;-76
2022/06/07 05:08:17;;;;;;;2.97;2.50;;;16.80;99.90;;;16.93;100.00;100464.88;5020384;28;20080;-76
2022/06/07 05:10:45;;;;;;;4.45;2.80;;;16.90;99.90;;;16.98;100.00;100461.06;5027259;28;20608;-77
2022/06/07 05:13:13;;;;;;;3.60;2.72;;;17.50;99.90;;;17.01;100.00;100463.59;5005972;28;20136;-75
2022/06/07 05:15:40;;;;;;;7.18;3.40;;;16.90;99.90;;;17.03;100.00;100466.19;5026549;28;20057;-76
2022/06/07 05:18:12;;;;;;;4.05;2.60;;;17.00;99.90;;;17.08;100.00;100474.78;5018313;28;20588;-76
2022/06/07 05:20:42;;;;;;;5.90;3.03;;;17.00;99.90;;;17.15;100.00;100481.50;5025793;28;20075;-76
2022/06/07 05:23:12;;;;;;;2.75;2.45;;;17.10;99.90;;;17.15;100.00;100473.50;5014625;28;20116;-76
2022/06/07 05:26:26;;;;;;;4.97;2.25;;;17.10;99.90;;;17.22;100.00;100484.72;5007070;28;20052;-76
2022/06/07 05:28:56;;;;;;;;;;;17.10;99.90;;;17.26;100.00;100486.31;4996737;28;20054;-76
2022/06/07 05:31:24;;;;;;;4.72;2.63;;;17.20;99.90;;;17.21;100.00;100480.31;5006940;28;19932;-76
2022/06/07 05:33:52;;;;;;;3.00;2.40;;;17.20;99.90;;;17.21;100.00;100495.44;4998517;28;20065;-77
2022/06/07 05:36:39;;;;;;;4.47;2.90;;;17.20;99.90;;;17.17;100.00;100491.19;5010293;28;20041;-78
2022/06/07 05:39:20;;;;;;;3.58;2.40;;;17.20;99.90;;;17.22;100.00;100492.69;5013898;28;20107;-80
2022/06/07 05:41:49;;;;;;;3.33;2.53;;;17.20;99.90;;;17.28;100.00;100491.53;5015780;28;20589;-80
2022/06/07 05:44:21;;;;;;;5.35;2.50;;;17.80;99.90;;;17.35;100.00;100492.94;5030214;28;20109;-80
2022/06/07 05:46:52;;;;;;;;;;;17.20;99.90;;;17.41;100.00;100495.28;5013499;28;20104;-80
2022/06/07 05:49:31;;;;;;;5.03;4.20;;;17.50;99.90;;;17.36;100.00;100484.03;4997019;28;19927;-80
2022/06/07 05:52:04;;;;;;;5.90;3.38;;;17.30;99.90;;;17.37;100.00;100495.50;4998448;28;20060;-80
2022/06/07 05:54:34;;;;;;;5.38;3.22;;;17.40;99.90;;;17.48;100.00;100503.81;5002330;28;20421;-81
2022/06/07 05:57:04;;;;;;;3.30;2.70;;;17.40;99.90;;;17.54;100.00;100502.66;5001104;28;20544;-79
2022/06/07 05:59:34;;;;;;;3.35;2.45;;;17.40;99.90;;;17.58;100.00;100504.19;5031009;28;20572;-79
2022/06/07 06:02:03;;;;;;;4.10;3.08;;;17.40;99.90;;;17.66;100.00;100507.34;5034495;28;20415;-78
2022/06/07 06:04:36;;;;;;;5.40;2.67;;;17.60;99.90;;;17.63;100.00;100498.66;5015085;28;20046;-79
2022/06/07 06:07:04;;;;;;;3.65;2.92;;;17.60;99.90;;;17.65;100.00;100494.97;4998842;28;20194;-81
2022/06/07 06:12:26;;;;;;;5.80;3.05;;;17.60;99.90;;;17.81;100.00;100496.84;5030494;28;20084;-80
2022/06/07 06:15:03;;;;;;;3.83;2.80;;;17.70;99.90;;;17.89;100.00;100491.97;5015523;28;20269;-81
2022/06/07 06:17:31;;;;;;;6.72;3.28;;;17.80;99.90;;;17.90;100.00;100498.16;5012889;28;20100;-79
2022/06/07 06:20:09;;;;;;;5.35;2.80;;;17.80;99.90;;;18.00;100.00;100489.59;5012577;28;20071;-79
2022/06/07 06:22:42;;;;;;;4.70;2.70;;;17.90;99.90;;;18.10;100.00;100497.09;5011519;28;20049;-80
2022/06/07 06:25:10;;;;;;;5.35;2.70;;;18.00;99.90;;;18.13;100.00;100491.63;5008693;28;20595;-78
2022/06/07 06:27:37;;;;;;;6.13;2.40;;;18.00;99.90;;;18.11;100.00;100496.19;5009798;28;20042;-79
2022/06/07 06:30:10;;;;;;;3.60;2.10;;;18.00;99.90;;;18.11;100.00;100483.72;4993852;28;20046;-77
2022/06/07 06:32:46;;;;;;;2.67;2.25;;;18.00;99.90;;;18.20;100.00;100494.84;5012679;28;20057;-78
2022/06/07 06:35:17;;;;;;;2.83;2.17;;;18.10;99.90;;;18.19;100.00;100499.28;5011645;28;20081;-78
2022/06/07 06:37:45;;;;;;;5.38;2.80;;;18.10;99.90;;;18.15;100.00;100495.06;4996278;28;20077;-78
2022/06/07 06:40:14;;;;;;;6.57;2.70;;;18.10;99.90;;;18.20;100.00;100476.19;5030551;28;20056;-78
2022/06/07 06:42:51;;;;;;;4.45;2.72;;;18.10;99.90;;;18.14;100.00;100491.53;5027773;28;20061;-78
2022/06/07 06:45:29;;;;;;;3.55;2.35;;;18.10;99.90;;;18.17;100.00;100487.88;5035814;28;20087;-78
2022/06/07 06:48:02;;;;;;;2.92;2.47;;;18.10;99.90;;;18.15;100.00;100492.41;5015429;28;20041;-77
2022/06/07 06:50:31;;;;;;;3.67;2.25;;;18.10;99.90;;;18.22;100.00;100488.47;5012817;28;20048;-77
2022/06/07 06:52:58;;;;;;;5.57;2.47;;;18.10;99.90;;;18.20;100.00;100490.34;5028448;28;20517;-77
2022/06/07 06:55:27;;;;;;;6.15;2.28;;;18.10;99.90;;;18.18;100.00;100492.25;4999219;28;20074;-78
2022/06/07 06:57:55;;;;;;;3.38;2.40;;;18.10;99.90;;;18.30;100.00;100497.84;5015819;28;20588;-77
2022/06/07 07:00:23;;;;;;;2.30;1.92;;;18.10;99.90;;;18.38;100.00;100498.28;5011284;28;20053;-78
2022/06/07 07:02:53;;;;;;;4.32;2.35;;;18.20;99.90;;;18.35;100.00;100491.34;5029115;28;20041;-77
2022/06/07 07:05:21;;;;;;;3.38;2.53;;;18.30;99.90;;;18.40;100.00;100480.41;5004822;28;20610;-77
2022/06/07 07:07:57;;;;;;;3.20;2.00;;;18.30;99.90;;;18.38;100.00;100482.28;4994379;28;20708;-77
2022/06/07 07:10:26;;;;;;;4.65;2.25;;;18.30;99.90;;;18.30;100.00;100482.72;5010577;28;20042;-77
2022/06/07 07:12:53;;;;;;;3.95;2.55;;;18.30;99.90;;;18.32;100.00;100482.66;5030822;28;20065;-77
2022/06/07 07:15:26;;;;;;;3.70;2.40;;;18.30;99.90;;;18.40;100.00;100485.72;5034377;28;20340;-81
2022/06/07 07:18:03;;;;;;;4.13;2.80;;;18.30;99.90;;;18.53;100.00;100489.44;4999774;28;20462;-79
2022/06/07 07:20:41;;;;;;;3.83;2.38;;;18.40;99.90;;;18.67;100.00;100498.47;5012868;28;20050;-80
2022/06/07 07:23:09;;;;;;;;;;;18.50;99.90;;;18.87;100.00;100492.03;5013298;28;20092;-80
2022/06/07 07:25:37;;;;;;;2.90;2.55;;;18.60;99.90;;;18.93;100.00;100483.66;4998045;28;19956;-81
2022/06/07 07:28:05;;;;;;;5.10;2.40;;;18.70;99.90;;;19.04;100.00;100487.56;5004416;28;20056;-78
2022/06/07 07:30:34;;;;;;;4.10;2.80;;;18.80;99.90;;;19.15;100.00;100479.81;5031809;28;20041;-79
2022/06/07 07:33:01;;;;;;;9.02;2.47;;;18.90;99.90;;;19.20;100.00;100479.50;5011969;28;20046;-79
2022/06/07 07:35:30;;;;;;;3.65;1.98;;;19.00;99.80;;;19.31;100.00;100477.09;5000088;28;20510;-79
2022/06/07 07:38:02;;;;;;;6.13;2.35;;;19.10;99.60;;;19.37;100.00;100481.19;5032137;28;20050;-78
2022/06/07 07:40:30;;;;;;;5.85;1.77;;;19.20;99.40;;;19.39;100.00;100472.16;5014387;28;20112;-78
2022/06/07 07:43:00;;;;;;;2.55;2.10;;;19.20;99.30;;;19.52;100.00;100480.28;5015193;28;20052;-80
2022/06/07 07:45:35;;;;;;;3.90;1.90;;;19.30;99.10;;;19.65;100.00;100467.03;5015051;28;20462;-79
2022/06/07 07:48:09;;;;;;;3.03;2.22;;;19.40;99.00;;;19.67;100.00;100472.31;5035395;28;20045;-79
2022/06/07 07:50:40;;;;;;;2.40;2.05;;;19.50;98.90;;;19.68;100.00;100468.69;5034840;28;20060;-79
2022/06/07 07:53:09;;;;;;;3.13;2.00;;;19.50;98.70;;;19.85;100.00;100467.66;5035689;28;20108;-80
2022/06/07 07:55:46;;;;;;;2.13;1.90;;;19.60;98.70;;;20.03;100.00;100465.69;5035868;28;20049;-80
2022/06/07 07:58:16;;;;;;;2.45;2.00;;;19.70;98.90;;;20.06;100.00;100469.97;5039593;28;20057;-80
2022/06/07 08:00:47;;;;;;;4.65;1.67;;;19.80;98.30;;;20.13;100.00;100468.63;5042085;28;20045;-81
2022/06/07 08:03:16;;;;;;;3.17;1.75;;;19.90;97.90;;;20.22;100.00;100465.38;5023425;28;20049;-81
2022/06/07 08:05:48;;;;;;;2.50;1.70;;;20.00;98.00;;;20.12;100.00;100467.78;5003330;28;20124;-79
2022/06/07 08:08:15;;;;;;;3.95;1.80;;;20.00;97.60;;;20.07;100.00;100466.34;5020194;28;20042;-82
2022/06/07 08:10:43;;;;;;;3.17;1.90;;;20.00;97.70;;;20.20;100.00;100467.31;5018282;28;20072;-81
2022/06/07 08:13:10;;;;;;;7.25;2.25;;;20.00;97.80;;;20.07;100.00;100459.22;5023818;28;20046;-81
2022/06/07 08:15:37;;;;;;;6.30;1.80;;;20.00;97.50;;;20.18;100.00;100463.88;5039809;28;20130;-81
2022/06/07 08:18:05;;;;;;;6.18;2.40;;;20.10;97.50;;;20.08;100.00;100462.72;5023023;28;20060;-80
2022/06/07 08:20:37;;;;;;;3.80;2.22;;;20.10;97.10;;;20.15;100.00;100457.84;5038367;28;20045;-81
2022/06/07 08:23:07;;;;;;;3.50;1.63;;;20.00;97.40;;;20.20;100.00;100453.94;5038987;28;20060;-80
2022/06/07 08:25:35;;;;;;;2.40;1.67;;;20.10;97.20;;;20.28;100.00;100456.13;5036336;28;20284;-81
2022/06/07 08:28:02;;;;;;;3.38;1.65;;;20.00;97.30;;;20.21;100.00;100446.78;5048568;28;20037;-79
2022/06/07 08:30:32;;;;;;;2.30;1.58;;;20.10;96.80;;;20.36;100.00;100450.28;5009970;28;20393;-79
2022/06/07 08:37:32;;;;;;;2.05;1.70;;;20.10;96.80;;;20.43;100.00;100445.41;5006210;28;20053;-79
2022/06/07 08:38:35;;;;;;;2.20;1.48;;;20.30;96.80;;;20.46;100.00;100439.88;5029510;28;20059;-78
2022/06/07 08:41:02;;;;;;;3.15;1.50;;;20.30;96.20;;;20.64;100.00;100438.66;5013920;28;20572;-79
2022/06/07 08:43:30;;;;;;;3.28;1.58;;;20.30;96.30;;;20.62;100.00;100437.06;5031678;28;20018;-77
2022/06/07 08:45:58;;;;;;;3.13;1.80;;;20.40;96.10;;;20.59;100.00;100427.44;5016278;28;20034;-79
2022/06/07 08:48:32;;;;;;;3.25;1.73;;;20.50;96.00;;;20.77;100.00;100435.19;5035534;28;20060;-79
2022/06/07 08:51:26;;;;;;;2.70;1.55;;;20.50;95.90;;;20.69;100.00;100433.03;5021856;28;20103;-80
2022/06/07 08:54:00;;;;;;;4.15;1.40;;;20.50;96.10;;;20.92;100.00;100428.03;5016788;28;20104;-78
2022/06/07 08:56:34;;;;;;;3.33;1.60;;;20.60;95.80;;;20.89;100.00;100423.72;5012597;28;20108;-78
2022/06/07 08:59:17;;;;;;;3.42;1.52;;;20.70;95.20;;;20.79;100.00;100419.91;5004678;28;20069;-79
2022/06/07 09:01:56;;;;;;;2.03;1.60;;;20.70;95.30;;;21.04;100.00;100420.97;5016194;28;20602;-80
2022/06/07 09:04:31;;;;;;;1.52;1.20;;;20.70;95.70;;;21.30;100.00;100421.88;5031612;28;20045;-78
2022/06/07 09:07:13;;;;;;;2.42;1.13;;;20.90;96.00;;;21.28;100.00;100421.13;5048160;28;20048;-80
2022/06/07 09:12:37;;;;;;;2.90;1.38;;;21.00;94.70;;;21.29;100.00;100413.94;5020245;28;20069;-74
2022/06/07 09:15:15;;;;;;;2.90;1.23;;;21.00;94.90;;;21.44;100.00;100407.53;5023752;28;20037;-75
2022/06/07 09:17:53;;;;;;;1.75;1.30;;;21.10;94.70;;;21.51;100.00;100410.66;5040253;28;20454;-75
2022/06/07 09:20:44;;;;;;;1.63;1.23;;;21.20;94.40;;;21.25;100.00;100403.47;5042203;28;20736;-75
2022/06/07 09:23:24;;;;;;;2.88;1.00;;;21.20;93.70;;;21.28;100.00;100418.44;5042718;28;20041;-74
2022/06/07 09:25:53;;;;;;;;;;;21.10;93.80;;;21.29;98.10;100398.75;5042755;28;20037;-73
2022/06/07 09:28:28;;;;;;;3.92;1.23;;;21.10;93.60;;;21.34;97.39;100401.13;5027091;28;19924;-74
2022/06/07 09:31:11;;;;;;;1.60;1.20;;;21.10;93.50;;;21.47;98.79;100401.13;5026303;28;20053;-74
2022/06/07 09:33:57;;;;;;;5.07;1.20;;;21.20;93.70;;;21.54;98.31;100391.69;5025273;28;20592;-74
2022/06/07 09:36:36;;;;;;;3.08;1.10;;;21.30;93.70;;;21.60;93.92;100401.09;5026149;28;20042;-76
2022/06/07 09:39:29;;;;;;;2.08;1.15;;;21.40;93.20;;;21.75;92.47;100385.84;5009012;28;20060;-77
2022/06/07 09:42:25;;;;;;;2.35;1.30;;;21.40;92.90;;;21.92;92.32;100396.19;5009043;28;20116;-79
2022/06/07 09:45:00;;;;;;;3.58;1.40;;;21.60;93.10;;;22.07;94.45;100393.38;5008606;28;20045;-78
2022/06/07 09:47:31;;;;;;;2.28;1.00;;;21.70;93.20;;;22.05;90.89;100381.94;5012586;28;20046;-78
2022/06/07 09:50:06;;;;;;;4.38;1.40;;;21.70;92.70;;;22.15;81.46;100395.50;5011989;28;20078;-76
2022/06/07 09:52:48;;;;;;;2.17;1.08;;;21.80;91.60;;;22.29;79.22;100383.78;5023596;28;20092;-76
2022/06/07 09:55:39;;;;;;;2.00;1.25;;;22.00;91.50;;;22.39;78.31;100376.78;5024176;28;20068;-77
2022/06/07 09:58:34;;;;;;;4.35;1.02;;;22.10;91.30;;;22.41;79.17;100379.34;5008317;28;20037;-77
2022/06/07 10:01:09;;;;;;;2.13;1.13;;;22.10;91.30;;;22.45;79.60;100383.50;5006505;28;20054;-76
2022/06/07 10:04:05;;;;;;;1.10;1.00;;;22.20;91.20;;;22.31;78.12;100369.28;5033894;28;20398;-78
2022/06/07 10:06:40;;;;;;;1.30;1.05;;;22.20;90.90;;;22.37;79.63;100378.72;5026306;28;20141;-80
2022/06/07 10:09:57;;;;;;;1.20;1.02;;;22.20;91.00;;;22.52;81.91;100371.38;5010898;28;20069;-80
2022/06/07 10:13:21;;;;;;;2.72;1.20;;;22.20;91.40;;;22.69;82.67;100374.63;5029249;28;20045;-80
2022/06/07 10:16:14;;;;;;;2.10;1.30;;;22.30;91.40;;;22.69;81.59;100358.53;5033541;28;20077;-82
2022/06/07 10:19:08;;;;;;;1.88;1.00;;;22.40;91.20;;;22.84;81.48;100353.84;5004455;28;20061;-78
2022/06/07 10:21:40;;;;;;;3.50;1.52;;;22.50;91.30;;;22.50;80.59;100359.91;5040594;28;20045;-79
2022/06/07 10:24:59;;;;;;;1.38;0.98;;;22.40;90.80;;;22.51;74.25;100349.09;5018117;28;20117;-80
2022/06/07 10:27:50;;;;;;;1.70;1.00;;;22.30;90.40;;;22.49;76.18;100359.09;5026514;28;20053;-79
2022/06/07 10:30:57;;;;;;;2.40;1.10;;;22.30;90.40;;;22.51;78.32;100348.22;5040675;28;20780;-80
2022/06/07 10:33:49;;;;;;;2.17;1.00;;;22.20;90.50;;;22.80;78.39;100363.94;4997904;28;20065;-79
2022/06/07 10:36:53;;;;;;;3.05;1.30;;;22.30;91.00;;;22.73;73.53;100349.31;5028204;28;20061;-79
2022/06/07 10:39:57;;;;;;;5.07;1.50;;;22.50;90.00;;;22.69;75.34;100347.81;5024080;28;20069;-78
2022/06/07 10:42:47;;;;;;;2.03;1.08;;;22.50;90.20;;;22.72;75.69;100337.72;5023428;28;20124;-79
2022/06/07 10:45:21;;;;;;;4.60;1.35;;;22.40;90.20;;;22.99;75.12;100351.81;5024050;28;20053;-80
2022/06/07 10:47:58;;;;;;;1.95;1.35;;;22.50;90.30;;;22.82;76.16;100337.84;5009211;28;20049;-79
2022/06/07 10:50:42;;;;;;;3.03;1.45;;;22.60;90.20;;;23.27;78.43;100350.56;5029014;28;20409;-78